Terminal Aerodrome Forecast
Issued by NWS

Home | Current Version | Previous Version | Text Only | Print | Product List | Glossary Off
Versions: 1 2 3 4 5 6 7 8 9 10 11 12 13 14 15 16 17 18

000
FTUS43 KIWX 172300
TAFSBN
TAF
KSBN 172337Z 1800/1824 29014G24KT P6SM -SHRA BKN030
     FM180600 32014G24KT 5SM -SHRA BR OVC015
     FM182100 33014G24KT P6SM BKN025=

USA.gov is the U.S. government's official web portal to all federal, state and local government web resources and services.